sensor_id;sensor_type;location;lat;lon;timestamp;P1;durP1;ratioP1;P2;durP2;ratioP2
57947;SDS011;43754;56.992;24.292;2023-08-01T00:00:24;5.10;;;3.42;;
57947;SDS011;43754;56.992;24.292;2023-08-01T00:02:57;5.95;;;3.50;;
57947;SDS011;43754;56.992;24.292;2023-08-01T00:05:29;5.00;;;3.40;;
57947;SDS011;43754;56.992;24.292;2023-08-01T00:08:03;4.00;;;3.30;;
57947;SDS011;43754;56.992;24.292;2023-08-01T00:10:35;4.80;;;2.95;;
57947;SDS011;43754;56.992;24.292;2023-08-01T00:13:07;4.82;;;3.03;;
57947;SDS011;43754;56.992;24.292;2023-08-01T00:15:40;4.53;;;3.45;;
57947;SDS011;43754;56.992;24.292;2023-08-01T00:18:18;4.47;;;3.50;;
57947;SDS011;43754;56.992;24.292;2023-08-01T00:20:51;3.90;;;3.50;;
57947;SDS011;43754;56.992;24.292;2023-08-01T00:23:25;6.45;;;3.92;;
57947;SDS011;43754;56.992;24.292;2023-08-01T00:25:57;6.85;;;3.83;;
57947;SDS011;43754;56.992;24.292;2023-08-01T00:28:29;3.83;;;3.28;;
57947;SDS011;43754;56.992;24.292;2023-08-01T00:31:03;5.10;;;3.63;;
57947;SDS011;43754;56.992;24.292;2023-08-01T00:33:36;4.70;;;3.30;;
57947;SDS011;43754;56.992;24.292;2023-08-01T00:36:08;3.42;;;2.45;;
57947;SDS011;43754;56.992;24.292;2023-08-01T00:38:44;4.13;;;3.47;;
57947;SDS011;43754;56.992;24.292;2023-08-01T00:41:16;3.20;;;2.88;;
57947;SDS011;43754;56.992;24.292;2023-08-01T00:43:48;6.13;;;3.10;;
57947;SDS011;43754;56.992;24.292;2023-08-01T00:46:20;3.88;;;3.03;;
57947;SDS011;43754;56.992;24.292;2023-08-01T00:48:52;6.18;;;3.00;;
57947;SDS011;43754;56.992;24.292;2023-08-01T00:51:29;5.28;;;3.05;;
57947;SDS011;43754;56.992;24.292;2023-08-01T00:54:04;3.40;;;3.08;;
57947;SDS011;43754;56.992;24.292;2023-08-01T00:56:37;6.63;;;2.80;;
57947;SDS011;43754;56.992;24.292;2023-08-01T00:59:09;5.30;;;3.42;;
57947;SDS011;43754;56.992;24.292;2023-08-01T01:01:44;4.93;;;2.90;;
57947;SDS011;43754;56.992;24.292;2023-08-01T01:04:17;11.82;;;3.35;;
57947;SDS011;43754;56.992;24.292;2023-08-01T01:06:51;3.33;;;3.03;;
57947;SDS011;43754;56.992;24.292;2023-08-01T01:09:27;4.55;;;2.83;;
57947;SDS011;43754;56.992;24.292;2023-08-01T01:12:01;3.78;;;3.15;;
57947;SDS011;43754;56.992;24.292;2023-08-01T01:14:33;5.90;;;2.83;;
57947;SDS011;43754;56.992;24.292;2023-08-01T01:17:05;4.68;;;2.70;;
57947;SDS011;43754;56.992;24.292;2023-08-01T01:19:37;4.18;;;2.80;;
57947;SDS011;43754;56.992;24.292;2023-08-01T01:22:11;4.30;;;2.22;;
57947;SDS011;43754;56.992;24.292;2023-08-01T01:24:43;5.82;;;2.40;;
57947;SDS011;43754;56.992;24.292;2023-08-01T01:27:16;6.40;;;2.60;;
57947;SDS011;43754;56.992;24.292;2023-08-01T01:29:49;4.22;;;2.17;;
57947;SDS011;43754;56.992;24.292;2023-08-01T01:32:22;6.00;;;2.70;;
57947;SDS011;43754;56.992;24.292;2023-08-01T01:34:55;8.85;;;2.70;;
57947;SDS011;43754;56.992;24.292;2023-08-01T01:37:28;5.45;;;2.67;;
57947;SDS011;43754;56.992;24.292;2023-08-01T01:40:01;5.03;;;2.60;;
57947;SDS011;43754;56.992;24.292;2023-08-01T01:42:33;7.40;;;3.03;;
57947;SDS011;43754;56.992;24.292;2023-08-01T01:45:05;5.53;;;2.33;;
57947;SDS011;43754;56.992;24.292;2023-08-01T01:47:37;4.18;;;2.38;;
57947;SDS011;43754;56.992;24.292;2023-08-01T01:50:11;11.00;;;2.40;;
57947;SDS011;43754;56.992;24.292;2023-08-01T01:52:44;3.88;;;2.70;;
57947;SDS011;43754;56.992;24.292;2023-08-01T01:55:16;6.15;;;2.63;;
57947;SDS011;43754;56.992;24.292;2023-08-01T01:57:49;4.25;;;2.00;;
57947;SDS011;43754;56.992;24.292;2023-08-01T02:00:21;7.03;;;2.40;;
57947;SDS011;43754;56.992;24.292;2023-08-01T02:02:53;5.30;;;2.30;;
57947;SDS011;43754;56.992;24.292;2023-08-01T02:05:25;3.92;;;2.00;;
57947;SDS011;43754;56.992;24.292;2023-08-01T02:07:58;3.70;;;2.17;;
57947;SDS011;43754;56.992;24.292;2023-08-01T02:10:30;5.15;;;2.28;;
57947;SDS011;43754;56.992;24.292;2023-08-01T02:13:02;8.55;;;2.50;;
57947;SDS011;43754;56.992;24.292;2023-08-01T02:15:34;4.45;;;2.35;;
57947;SDS011;43754;56.992;24.292;2023-08-01T02:18:07;7.70;;;2.42;;
57947;SDS011;43754;56.992;24.292;2023-08-01T02:20:39;8.02;;;2.47;;
57947;SDS011;43754;56.992;24.292;2023-08-01T02:23:13;6.75;;;2.17;;
57947;SDS011;43754;56.992;24.292;2023-08-01T02:25:47;3.28;;;1.95;;
57947;SDS011;43754;56.992;24.292;2023-08-01T02:28:19;6.03;;;2.30;;
57947;SDS011;43754;56.992;24.292;2023-08-01T02:30:52;5.75;;;2.25;;
57947;SDS011;43754;56.992;24.292;2023-08-01T02:33:24;5.53;;;1.98;;
57947;SDS011;43754;56.992;24.292;2023-08-01T02:35:57;7.55;;;2.20;;
57947;SDS011;43754;56.992;24.292;2023-08-01T02:38:30;4.55;;;2.17;;
57947;SDS011;43754;56.992;24.292;2023-08-01T02:41:02;3.10;;;2.35;;
57947;SDS011;43754;56.992;24.292;2023-08-01T02:43:34;8.80;;;1.90;;
57947;SDS011;43754;56.992;24.292;2023-08-01T02:46:07;6.28;;;1.92;;
57947;SDS011;43754;56.992;24.292;2023-08-01T02:48:40;6.57;;;2.30;;
57947;SDS011;43754;56.992;24.292;2023-08-01T02:51:12;2.72;;;1.63;;
57947;SDS011;43754;56.992;24.292;2023-08-01T02:53:45;7.57;;;2.00;;
57947;SDS011;43754;56.992;24.292;2023-08-01T02:56:18;5.57;;;2.33;;
57947;SDS011;43754;56.992;24.292;2023-08-01T02:58:50;6.00;;;2.00;;
57947;SDS011;43754;56.992;24.292;2023-08-01T03:01:23;7.60;;;2.45;;
57947;SDS011;43754;56.992;24.292;2023-08-01T03:03:55;5.57;;;1.77;;
57947;SDS011;43754;56.992;24.292;2023-08-01T03:06:27;4.82;;;2.03;;
57947;SDS011;43754;56.992;24.292;2023-08-01T03:09:00;4.22;;;2.03;;
57947;SDS011;43754;56.992;24.292;2023-08-01T03:11:33;5.45;;;1.80;;
57947;SDS011;43754;56.992;24.292;2023-08-01T03:14:05;4.05;;;2.00;;
57947;SDS011;43754;56.992;24.292;2023-08-01T03:16:37;2.58;;;1.65;;
57947;SDS011;43754;56.992;24.292;2023-08-01T03:19:09;4.65;;;1.90;;
57947;SDS011;43754;56.992;24.292;2023-08-01T03:21:41;4.93;;;1.75;;
57947;SDS011;43754;56.992;24.292;2023-08-01T03:24:15;4.80;;;1.98;;
57947;SDS011;43754;56.992;24.292;2023-08-01T03:26:47;5.80;;;1.80;;
57947;SDS011;43754;56.992;24.292;2023-08-01T03:29:19;11.75;;;2.38;;
57947;SDS011;43754;56.992;24.292;2023-08-01T03:31:52;3.63;;;1.95;;
57947;SDS011;43754;56.992;24.292;2023-08-01T03:34:24;6.20;;;2.30;;
57947;SDS011;43754;56.992;24.292;2023-08-01T03:36:58;6.15;;;1.80;;
57947;SDS011;43754;56.992;24.292;2023-08-01T03:39:32;6.88;;;2.33;;
57947;SDS011;43754;56.992;24.292;2023-08-01T03:42:04;8.43;;;1.95;;
57947;SDS011;43754;56.992;24.292;2023-08-01T03:44:36;11.50;;;2.58;;
57947;SDS011;43754;56.992;24.292;2023-08-01T03:47:08;6.10;;;2.15;;
57947;SDS011;43754;56.992;24.292;2023-08-01T03:49:40;5.32;;;2.00;;
57947;SDS011;43754;56.992;24.292;2023-08-01T03:52:12;5.60;;;1.85;;
57947;SDS011;43754;56.992;24.292;2023-08-01T03:54:46;7.18;;;1.80;;
57947;SDS011;43754;56.992;24.292;2023-08-01T03:57:19;7.25;;;2.15;;
57947;SDS011;43754;56.992;24.292;2023-08-01T03:59:51;11.60;;;2.58;;
57947;SDS011;43754;56.992;24.292;2023-08-01T04:02:23;4.10;;;1.65;;
57947;SDS011;43754;56.992;24.292;2023-08-01T04:04:55;7.25;;;2.25;;
57947;SDS011;43754;56.992;24.292;2023-08-01T04:07:28;3.83;;;1.67;;
57947;SDS011;43754;56.992;24.292;2023-08-01T04:10:01;3.80;;;1.85;;
57947;SDS011;43754;56.992;24.292;2023-08-01T04:12:34;4.20;;;1.55;;
57947;SDS011;43754;56.992;24.292;2023-08-01T04:15:06;7.65;;;1.60;;
57947;SDS011;43754;56.992;24.292;2023-08-01T04:17:39;3.78;;;1.70;;
57947;SDS011;43754;56.992;24.292;2023-08-01T04:20:11;4.70;;;1.52;;
57947;SDS011;43754;56.992;24.292;2023-08-01T04:22:44;5.63;;;1.55;;
57947;SDS011;43754;56.992;24.292;2023-08-01T04:25:17;7.57;;;1.77;;
57947;SDS011;43754;56.992;24.292;2023-08-01T04:27:49;3.88;;;1.77;;
57947;SDS011;43754;56.992;24.292;2023-08-01T04:30:21;5.05;;;1.67;;
57947;SDS011;43754;56.992;24.292;2023-08-01T04:32:53;5.30;;;1.65;;
57947;SDS011;43754;56.992;24.292;2023-08-01T04:35:25;3.05;;;1.67;;
57947;SDS011;43754;56.992;24.292;2023-08-01T04:37:57;5.10;;;1.80;;
57947;SDS011;43754;56.992;24.292;2023-08-01T04:40:31;5.75;;;1.38;;
57947;SDS011;43754;56.992;24.292;2023-08-01T04:43:03;5.70;;;2.15;;
57947;SDS011;43754;56.992;24.292;2023-08-01T04:45:35;3.28;;;1.52;;
57947;SDS011;43754;56.992;24.292;2023-08-01T04:48:07;10.10;;;1.80;;
57947;SDS011;43754;56.992;24.292;2023-08-01T04:50:39;3.78;;;1.85;;
57947;SDS011;43754;56.992;24.292;2023-08-01T04:53:11;3.88;;;1.75;;
57947;SDS011;43754;56.992;24.292;2023-08-01T04:55:45;5.22;;;2.10;;
57947;SDS011;43754;56.992;24.292;2023-08-01T04:58:17;4.90;;;1.65;;
57947;SDS011;43754;56.992;24.292;2023-08-01T05:00:49;8.05;;;2.05;;
57947;SDS011;43754;56.992;24.292;2023-08-01T05:03:21;2.53;;;1.60;;
57947;SDS011;43754;56.992;24.292;2023-08-01T05:05:53;4.70;;;1.55;;
57947;SDS011;43754;56.992;24.292;2023-08-01T05:08:25;5.78;;;1.63;;
57947;SDS011;43754;56.992;24.292;2023-08-01T05:10:59;4.25;;;2.17;;
57947;SDS011;43754;56.992;24.292;2023-08-01T05:13:31;7.72;;;1.92;;
57947;SDS011;43754;56.992;24.292;2023-08-01T05:16:03;6.10;;;2.22;;
57947;SDS011;43754;56.992;24.292;2023-08-01T05:18:35;7.72;;;2.50;;
57947;SDS011;43754;56.992;24.292;2023-08-01T05:21:07;7.85;;;2.42;;
57947;SDS011;43754;56.992;24.292;2023-08-01T05:23:39;4.60;;;1.83;;
57947;SDS011;43754;56.992;24.292;2023-08-01T05:26:13;5.55;;;1.90;;
57947;SDS011;43754;56.992;24.292;2023-08-01T05:28:45;3.70;;;1.75;;
57947;SDS011;43754;56.992;24.292;2023-08-01T05:31:17;5.80;;;1.70;;
57947;SDS011;43754;56.992;24.292;2023-08-01T05:33:49;6.15;;;1.95;;
57947;SDS011;43754;56.992;24.292;2023-08-01T05:36:21;3.70;;;1.77;;
57947;SDS011;43754;56.992;24.292;2023-08-01T05:38:53;6.40;;;1.92;;
57947;SDS011;43754;56.992;24.292;2023-08-01T05:41:26;8.27;;;1.70;;
57947;SDS011;43754;56.992;24.292;2023-08-01T05:43:58;3.38;;;1.50;;
57947;SDS011;43754;56.992;24.292;2023-08-01T05:46:31;4.57;;;1.60;;
57947;SDS011;43754;56.992;24.292;2023-08-01T05:49:03;5.10;;;1.70;;
57947;SDS011;43754;56.992;24.292;2023-08-01T05:51:35;3.15;;;2.10;;
57947;SDS011;43754;56.992;24.292;2023-08-01T05:54:07;6.28;;;1.95;;
57947;SDS011;43754;56.992;24.292;2023-08-01T05:56:41;4.88;;;1.45;;
57947;SDS011;43754;56.992;24.292;2023-08-01T05:59:14;8.18;;;1.77;;
57947;SDS011;43754;56.992;24.292;2023-08-01T06:01:46;3.63;;;1.75;;
57947;SDS011;43754;56.992;24.292;2023-08-01T06:04:18;7.68;;;1.58;;
57947;SDS011;43754;56.992;24.292;2023-08-01T06:06:50;5.68;;;2.05;;
57947;SDS011;43754;56.992;24.292;2023-08-01T06:09:22;4.05;;;1.45;;
57947;SDS011;43754;56.992;24.292;2023-08-01T06:11:56;3.75;;;1.85;;
57947;SDS011;43754;56.992;24.292;2023-08-01T06:14:28;5.85;;;1.80;;
57947;SDS011;43754;56.992;24.292;2023-08-01T06:17:00;3.80;;;1.52;;
57947;SDS011;43754;56.992;24.292;2023-08-01T06:19:32;3.40;;;1.63;;
57947;SDS011;43754;56.992;24.292;2023-08-01T06:22:05;6.18;;;1.95;;
57947;SDS011;43754;56.992;24.292;2023-08-01T06:24:37;3.92;;;1.60;;
57947;SDS011;43754;56.992;24.292;2023-08-01T06:27:10;4.63;;;2.03;;
57947;SDS011;43754;56.992;24.292;2023-08-01T06:29:43;3.95;;;1.80;;
57947;SDS011;43754;56.992;24.292;2023-08-01T06:32:15;3.70;;;1.25;;
57947;SDS011;43754;56.992;24.292;2023-08-01T06:34:47;6.50;;;1.65;;
57947;SDS011;43754;56.992;24.292;2023-08-01T06:37:19;3.35;;;1.65;;
57947;SDS011;43754;56.992;24.292;2023-08-01T06:39:51;3.78;;;1.65;;
57947;SDS011;43754;56.992;24.292;2023-08-01T06:42:24;6.80;;;1.88;;
57947;SDS011;43754;56.992;24.292;2023-08-01T06:44:56;3.72;;;2.03;;
57947;SDS011;43754;56.992;24.292;2023-08-01T06:47:28;5.20;;;1.80;;
57947;SDS011;43754;56.992;24.292;2023-08-01T06:50:00;5.70;;;1.98;;
57947;SDS011;43754;56.992;24.292;2023-08-01T06:52:32;4.97;;;1.83;;
57947;SDS011;43754;56.992;24.292;2023-08-01T06:55:05;3.92;;;1.90;;
57947;SDS011;43754;56.992;24.292;2023-08-01T06:57:39;4.03;;;1.88;;
57947;SDS011;43754;56.992;24.292;2023-08-01T07:00:11;5.65;;;1.90;;
57947;SDS011;43754;56.992;24.292;2023-08-01T07:02:44;4.60;;;2.00;;
57947;SDS011;43754;56.992;24.292;2023-08-01T07:05:16;4.47;;;1.90;;
57947;SDS011;43754;56.992;24.292;2023-08-01T07:07:49;5.05;;;1.80;;
57947;SDS011;43754;56.992;24.292;2023-08-01T07:10:21;6.35;;;2.08;;
57947;SDS011;43754;56.992;24.292;2023-08-01T07:12:54;4.18;;;1.90;;
57947;SDS011;43754;56.992;24.292;2023-08-01T07:15:27;3.15;;;1.80;;
57947;SDS011;43754;56.992;24.292;2023-08-01T07:17:59;6.65;;;2.17;;
57947;SDS011;43754;56.992;24.292;2023-08-01T07:20:31;4.68;;;1.75;;
57947;SDS011;43754;56.992;24.292;2023-08-01T07:23:03;3.72;;;1.67;;
57947;SDS011;43754;56.992;24.292;2023-08-01T07:25:35;3.97;;;1.90;;
57947;SDS011;43754;56.992;24.292;2023-08-01T07:28:08;3.42;;;1.92;;
57947;SDS011;43754;56.992;24.292;2023-08-01T07:30:40;4.05;;;2.22;;
57947;SDS011;43754;56.992;24.292;2023-08-01T07:33:12;7.72;;;2.20;;
57947;SDS011;43754;56.992;24.292;2023-08-01T07:35:45;2.85;;;1.88;;
57947;SDS011;43754;56.992;24.292;2023-08-01T07:38:17;3.95;;;1.80;;
57947;SDS011;43754;56.992;24.292;2023-08-01T07:40:49;3.05;;;1.70;;
57947;SDS011;43754;56.992;24.292;2023-08-01T07:43:22;3.80;;;1.98;;
57947;SDS011;43754;56.992;24.292;2023-08-01T07:45:55;4.53;;;1.67;;
57947;SDS011;43754;56.992;24.292;2023-08-01T07:48:28;5.68;;;1.90;;
57947;SDS011;43754;56.992;24.292;2023-08-01T07:51:00;4.97;;;1.80;;
57947;SDS011;43754;56.992;24.292;2023-08-01T07:53:32;7.43;;;2.20;;
57947;SDS011;43754;56.992;24.292;2023-08-01T07:56:04;5.32;;;2.28;;
57947;SDS011;43754;56.992;24.292;2023-08-01T07:58:40;8.05;;;2.33;;
57947;SDS011;43754;56.992;24.292;2023-08-01T08:01:12;5.47;;;2.03;;
57947;SDS011;43754;56.992;24.292;2023-08-01T08:03:44;4.20;;;2.17;;
57947;SDS011;43754;56.992;24.292;2023-08-01T08:06:16;10.52;;;2.17;;
57947;SDS011;43754;56.992;24.292;2023-08-01T08:08:48;7.43;;;2.10;;
57947;SDS011;43754;56.992;24.292;2023-08-01T08:11:21;3.35;;;1.60;;
57947;SDS011;43754;56.992;24.292;2023-08-01T08:13:56;7.32;;;2.33;;
57947;SDS011;43754;56.992;24.292;2023-08-01T08:16:28;6.55;;;2.53;;
57947;SDS011;43754;56.992;24.292;2023-08-01T08:19:00;4.95;;;2.17;;
57947;SDS011;43754;56.992;24.292;2023-08-01T08:21:32;4.78;;;1.88;;
57947;SDS011;43754;56.992;24.292;2023-08-01T08:24:04;5.88;;;1.83;;
57947;SDS011;43754;56.992;24.292;2023-08-01T08:26:36;7.65;;;2.20;;
57947;SDS011;43754;56.992;24.292;2023-08-01T08:29:13;5.13;;;1.80;;
57947;SDS011;43754;56.992;24.292;2023-08-01T08:31:45;2.75;;;1.70;;
57947;SDS011;43754;56.992;24.292;2023-08-01T08:34:17;5.57;;;2.10;;
57947;SDS011;43754;56.992;24.292;2023-08-01T08:36:49;4.60;;;2.05;;
57947;SDS011;43754;56.992;24.292;2023-08-01T08:39:22;3.08;;;1.83;;
57947;SDS011;43754;56.992;24.292;2023-08-01T08:41:54;2.33;;;1.80;;
57947;SDS011;43754;56.992;24.292;2023-08-01T08:44:27;4.93;;;1.77;;
57947;SDS011;43754;56.992;24.292;2023-08-01T08:47:02;8.05;;;2.10;;
57947;SDS011;43754;56.992;24.292;2023-08-01T08:49:36;10.13;;;2.40;;
57947;SDS011;43754;56.992;24.292;2023-08-01T08:52:09;3.33;;;1.70;;
57947;SDS011;43754;56.992;24.292;2023-08-01T08:54:41;5.57;;;1.90;;
57947;SDS011;43754;56.992;24.292;2023-08-01T08:57:14;3.33;;;2.00;;
57947;SDS011;43754;56.992;24.292;2023-08-01T08:59:48;5.85;;;1.83;;
57947;SDS011;43754;56.992;24.292;2023-08-01T09:02:21;3.95;;;2.03;;
57947;SDS011;43754;56.992;24.292;2023-08-01T09:04:54;3.55;;;2.13;;
57947;SDS011;43754;56.992;24.292;2023-08-01T09:07:29;2.28;;;1.73;;
57947;SDS011;43754;56.992;24.292;2023-08-01T09:10:05;11.90;;;2.08;;
57947;SDS011;43754;56.992;24.292;2023-08-01T09:12:38;6.22;;;2.20;;
57947;SDS011;43754;56.992;24.292;2023-08-01T09:15:11;4.53;;;1.70;;
57947;SDS011;43754;56.992;24.292;2023-08-01T09:17:49;3.97;;;2.30;;
57947;SDS011;43754;56.992;24.292;2023-08-01T09:20:21;2.85;;;1.80;;
57947;SDS011;43754;56.992;24.292;2023-08-01T09:22:53;7.97;;;1.70;;
57947;SDS011;43754;56.992;24.292;2023-08-01T09:25:30;3.22;;;2.00;;
57947;SDS011;43754;56.992;24.292;2023-08-01T09:28:04;6.00;;;2.10;;
57947;SDS011;43754;56.992;24.292;2023-08-01T09:30:49;5.10;;;2.30;;
57947;SDS011;43754;56.992;24.292;2023-08-01T09:33:23;7.40;;;3.60;;
57947;SDS011;43754;56.992;24.292;2023-08-01T09:35:55;5.20;;;3.42;;
57947;SDS011;43754;56.992;24.292;2023-08-01T09:38:27;3.97;;;2.05;;
57947;SDS011;43754;56.992;24.292;2023-08-01T09:41:05;7.18;;;2.42;;
57947;SDS011;43754;56.992;24.292;2023-08-01T09:43:37;4.30;;;2.10;;
57947;SDS011;43754;56.992;24.292;2023-08-01T09:46:11;3.05;;;2.22;;
57947;SDS011;43754;56.992;24.292;2023-08-01T09:48:43;6.10;;;2.15;;
57947;SDS011;43754;56.992;24.292;2023-08-01T09:51:16;2.90;;;2.25;;
57947;SDS011;43754;56.992;24.292;2023-08-01T09:53:49;4.60;;;2.15;;
57947;SDS011;43754;56.992;24.292;2023-08-01T09:56:24;9.07;;;2.55;;
57947;SDS011;43754;56.992;24.292;2023-08-01T09:58:57;3.28;;;2.10;;
57947;SDS011;43754;56.992;24.292;2023-08-01T10:01:34;4.78;;;2.10;;
57947;SDS011;43754;56.992;24.292;2023-08-01T10:04:06;5.55;;;2.22;;
57947;SDS011;43754;56.992;24.292;2023-08-01T10:06:41;6.90;;;2.05;;
57947;SDS011;43754;56.992;24.292;2023-08-01T10:09:17;5.40;;;2.28;;
57947;SDS011;43754;56.992;24.292;2023-08-01T10:11:50;4.43;;;2.35;;
57947;SDS011;43754;56.992;24.292;2023-08-01T10:14:23;4.40;;;2.10;;
57947;SDS011;43754;56.992;24.292;2023-08-01T10:16:59;3.28;;;1.95;;
57947;SDS011;43754;56.992;24.292;2023-08-01T10:19:33;3.80;;;2.30;;
57947;SDS011;43754;56.992;24.292;2023-08-01T10:22:06;3.08;;;2.00;;
57947;SDS011;43754;56.992;24.292;2023-08-01T10:24:40;3.90;;;1.80;;
57947;SDS011;43754;56.992;24.292;2023-08-01T10:27:13;3.90;;;1.90;;
57947;SDS011;43754;56.992;24.292;2023-08-01T10:29:55;6.78;;;2.75;;
57947;SDS011;43754;56.992;24.292;2023-08-01T10:32:31;7.22;;;2.70;;
57947;SDS011;43754;56.992;24.292;2023-08-01T10:35:04;9.50;;;2.40;;
57947;SDS011;43754;56.992;24.292;2023-08-01T10:37:38;4.18;;;2.17;;
57947;SDS011;43754;56.992;24.292;2023-08-01T10:40:11;2.95;;;1.67;;
57947;SDS011;43754;56.992;24.292;2023-08-01T10:42:46;4.90;;;2.53;;
57947;SDS011;43754;56.992;24.292;2023-08-01T10:45:19;5.07;;;2.00;;
57947;SDS011;43754;56.992;24.292;2023-08-01T10:47:54;7.90;;;2.33;;
57947;SDS011;43754;56.992;24.292;2023-08-01T10:50:37;6.85;;;2.47;;
57947;SDS011;43754;56.992;24.292;2023-08-01T10:53:10;5.63;;;2.30;;
57947;SDS011;43754;56.992;24.292;2023-08-01T10:55:42;4.75;;;2.08;;
57947;SDS011;43754;56.992;24.292;2023-08-01T10:58:15;3.25;;;1.88;;
57947;SDS011;43754;56.992;24.292;2023-08-01T11:00:56;6.22;;;2.00;;
57947;SDS011;43754;56.992;24.292;2023-08-01T11:03:37;5.65;;;2.42;;
57947;SDS011;43754;56.992;24.292;2023-08-01T11:06:10;15.80;;;4.15;;
57947;SDS011;43754;56.992;24.292;2023-08-01T11:08:43;9.52;;;2.65;;
57947;SDS011;43754;56.992;24.292;2023-08-01T11:11:15;8.38;;;2.95;;
57947;SDS011;43754;56.992;24.292;2023-08-01T11:13:51;7.20;;;3.10;;
57947;SDS011;43754;56.992;24.292;2023-08-01T11:16:24;9.45;;;3.33;;
57947;SDS011;43754;56.992;24.292;2023-08-01T11:18:58;5.00;;;2.58;;
57947;SDS011;43754;56.992;24.292;2023-08-01T11:21:31;11.52;;;3.03;;
57947;SDS011;43754;56.992;24.292;2023-08-01T11:24:06;8.23;;;2.88;;
57947;SDS011;43754;56.992;24.292;2023-08-01T11:26:42;8.15;;;2.58;;
57947;SDS011;43754;56.992;24.292;2023-08-01T11:29:15;8.27;;;2.70;;
57947;SDS011;43754;56.992;24.292;2023-08-01T11:31:54;8.38;;;2.78;;
57947;SDS011;43754;56.992;24.292;2023-08-01T11:34:38;4.90;;;2.90;;
57947;SDS011;43754;56.992;24.292;2023-08-01T11:37:15;7.85;;;3.28;;
57947;SDS011;43754;56.992;24.292;2023-08-01T11:39:50;7.07;;;2.78;;
57947;SDS011;43754;56.992;24.292;2023-08-01T11:42:23;4.85;;;2.38;;
57947;SDS011;43754;56.992;24.292;2023-08-01T11:45:06;7.63;;;2.85;;
57947;SDS011;43754;56.992;24.292;2023-08-01T11:47:44;4.93;;;2.97;;
57947;SDS011;43754;56.992;24.292;2023-08-01T11:50:21;4.40;;;2.58;;
57947;SDS011;43754;56.992;24.292;2023-08-01T11:52:55;6.03;;;2.70;;
57947;SDS011;43754;56.992;24.292;2023-08-01T11:55:29;6.05;;;2.40;;
57947;SDS011;43754;56.992;24.292;2023-08-01T11:58:06;3.92;;;2.60;;
57947;SDS011;43754;56.992;24.292;2023-08-01T12:00:38;11.32;;;3.13;;
57947;SDS011;43754;56.992;24.292;2023-08-01T12:03:10;4.25;;;2.70;;
57947;SDS011;43754;56.992;24.292;2023-08-01T12:05:46;7.70;;;4.40;;
57947;SDS011;43754;56.992;24.292;2023-08-01T12:08:19;7.90;;;3.67;;
57947;SDS011;43754;56.992;24.292;2023-08-01T12:10:51;7.72;;;4.05;;
57947;SDS011;43754;56.992;24.292;2023-08-01T12:13:23;14.40;;;4.78;;
57947;SDS011;43754;56.992;24.292;2023-08-01T12:15:57;11.85;;;3.88;;
57947;SDS011;43754;56.992;24.292;2023-08-01T12:18:29;9.10;;;3.88;;
57947;SDS011;43754;56.992;24.292;2023-08-01T12:21:05;10.48;;;4.22;;
57947;SDS011;43754;56.992;24.292;2023-08-01T12:23:38;8.18;;;2.97;;
57947;SDS011;43754;56.992;24.292;2023-08-01T12:26:11;8.25;;;3.42;;
57947;SDS011;43754;56.992;24.292;2023-08-01T12:28:43;5.93;;;3.80;;
57947;SDS011;43754;56.992;24.292;2023-08-01T12:31:16;6.97;;;3.20;;
57947;SDS011;43754;56.992;24.292;2023-08-01T12:33:49;9.50;;;3.20;;
57947;SDS011;43754;56.992;24.292;2023-08-01T12:36:22;8.73;;;3.17;;
57947;SDS011;43754;56.992;24.292;2023-08-01T12:38:54;8.68;;;3.72;;
57947;SDS011;43754;56.992;24.292;2023-08-01T12:41:27;7.05;;;2.90;;
57947;SDS011;43754;56.992;24.292;2023-08-01T12:43:59;5.30;;;2.80;;
57947;SDS011;43754;56.992;24.292;2023-08-01T12:46:31;4.63;;;2.60;;
57947;SDS011;43754;56.992;24.292;2023-08-01T12:49:04;5.32;;;2.72;;
57947;SDS011;43754;56.992;24.292;2023-08-01T12:51:37;5.95;;;2.85;;
57947;SDS011;43754;56.992;24.292;2023-08-01T12:54:09;4.25;;;2.80;;
57947;SDS011;43754;56.992;24.292;2023-08-01T12:56:42;8.77;;;3.75;;
57947;SDS011;43754;56.992;24.292;2023-08-01T12:59:15;6.80;;;3.15;;
57947;SDS011;43754;56.992;24.292;2023-08-01T13:01:47;7.38;;;3.00;;
57947;SDS011;43754;56.992;24.292;2023-08-01T13:04:19;5.75;;;2.78;;
57947;SDS011;43754;56.992;24.292;2023-08-01T13:06:52;7.05;;;3.30;;
57947;SDS011;43754;56.992;24.292;2023-08-01T13:09:24;9.20;;;3.60;;
57947;SDS011;43754;56.992;24.292;2023-08-01T13:11:56;9.63;;;3.15;;
57947;SDS011;43754;56.992;24.292;2023-08-01T13:14:28;6.38;;;3.10;;
57947;SDS011;43754;56.992;24.292;2023-08-01T13:17:01;7.90;;;3.40;;
57947;SDS011;43754;56.992;24.292;2023-08-01T13:19:33;9.13;;;3.20;;
57947;SDS011;43754;56.992;24.292;2023-08-01T13:22:06;8.65;;;3.40;;
57947;SDS011;43754;56.992;24.292;2023-08-01T13:24:39;5.20;;;2.83;;
57947;SDS011;43754;56.992;24.292;2023-08-01T13:27:11;6.80;;;3.42;;
57947;SDS011;43754;56.992;24.292;2023-08-01T13:29:43;5.43;;;3.63;;
57947;SDS011;43754;56.992;24.292;2023-08-01T13:32:15;6.22;;;3.53;;
57947;SDS011;43754;56.992;24.292;2023-08-01T13:34:47;5.40;;;2.85;;
57947;SDS011;43754;56.992;24.292;2023-08-01T13:37:20;8.20;;;3.25;;
57947;SDS011;43754;56.992;24.292;2023-08-01T13:39:52;9.45;;;3.28;;
57947;SDS011;43754;56.992;24.292;2023-08-01T13:42:24;7.57;;;3.50;;
57947;SDS011;43754;56.992;24.292;2023-08-01T13:44:56;8.52;;;3.42;;
57947;SDS011;43754;56.992;24.292;2023-08-01T13:47:29;5.90;;;2.90;;
57947;SDS011;43754;56.992;24.292;2023-08-01T13:50:01;5.75;;;3.55;;
57947;SDS011;43754;56.992;24.292;2023-08-01T13:52:35;6.60;;;3.58;;
57947;SDS011;43754;56.992;24.292;2023-08-01T13:55:09;9.43;;;3.00;;
57947;SDS011;43754;56.992;24.292;2023-08-01T13:57:41;5.40;;;2.97;;
57947;SDS011;43754;56.992;24.292;2023-08-01T14:00:14;8.13;;;3.15;;
57947;SDS011;43754;56.992;24.292;2023-08-01T14:02:48;5.00;;;3.30;;
57947;SDS011;43754;56.992;24.292;2023-08-01T14:05:21;7.03;;;3.97;;
57947;SDS011;43754;56.992;24.292;2023-08-01T14:07:54;4.88;;;3.15;;
57947;SDS011;43754;56.992;24.292;2023-08-01T14:10:28;5.90;;;3.20;;
57947;SDS011;43754;56.992;24.292;2023-08-01T14:13:00;7.63;;;3.80;;
57947;SDS011;43754;56.992;24.292;2023-08-01T14:15:32;8.57;;;4.05;;
57947;SDS011;43754;56.992;24.292;2023-08-01T14:18:04;7.28;;;3.72;;
57947;SDS011;43754;56.992;24.292;2023-08-01T14:20:36;5.35;;;2.95;;
57947;SDS011;43754;56.992;24.292;2023-08-01T14:23:10;3.55;;;2.88;;
57947;SDS011;43754;56.992;24.292;2023-08-01T14:25:42;9.60;;;3.40;;
57947;SDS011;43754;56.992;24.292;2023-08-01T14:28:14;7.72;;;3.90;;
57947;SDS011;43754;56.992;24.292;2023-08-01T14:30:46;8.55;;;3.70;;
57947;SDS011;43754;56.992;24.292;2023-08-01T14:33:18;6.95;;;3.53;;
57947;SDS011;43754;56.992;24.292;2023-08-01T14:35:52;10.63;;;3.88;;
57947;SDS011;43754;56.992;24.292;2023-08-01T14:38:25;8.82;;;3.70;;
57947;SDS011;43754;56.992;24.292;2023-08-01T14:40:58;4.70;;;3.20;;
57947;SDS011;43754;56.992;24.292;2023-08-01T14:43:39;5.47;;;3.38;;
57947;SDS011;43754;56.992;24.292;2023-08-01T14:46:11;6.70;;;3.65;;
57947;SDS011;43754;56.992;24.292;2023-08-01T14:48:44;9.98;;;3.67;;
57947;SDS011;43754;56.992;24.292;2023-08-01T14:51:16;5.88;;;3.65;;
57947;SDS011;43754;56.992;24.292;2023-08-01T14:53:50;10.52;;;4.20;;
57947;SDS011;43754;56.992;24.292;2023-08-01T14:56:22;8.70;;;4.38;;
57947;SDS011;43754;56.992;24.292;2023-08-01T14:58:54;12.10;;;4.03;;
57947;SDS011;43754;56.992;24.292;2023-08-01T15:01:26;14.52;;;4.15;;
57947;SDS011;43754;56.992;24.292;2023-08-01T15:03:58;18.05;;;4.10;;
57947;SDS011;43754;56.992;24.292;2023-08-01T15:06:31;39.58;;;5.78;;